KAL4 RKPD-RKPD
Flight info
| Callsign | KAL4 |
|---|---|
| Flight time | 0h 17m |
| Altitude | 4000 |
| Route | VFR/CIRCUITS |
| Aircraft | A359/H-SDE2E3GHIJ1J3J4J5LM1ORWXY/LB1D1 |
Departure
| Time | 2026-05-06 17:07 |
|---|---|
| Airport | Jeongseok Airport (RKPD) |
Arrival
| Time | 2026-05-06 17:24 |
|---|---|
| Airport | Jeongseok Airport (RKPD) |
| Time | Latitude | Longitude | Altitude | Speed | Heading |
|---|---|---|---|---|---|
| 2026-05-06 16:36 | 33.40149 | 126.71668 | 1186 ft | 0 kts | 26° |
| 2026-05-06 16:57 | 33.40151 | 126.71668 | 1177 ft | 0 kts | 15° |
| 2026-05-06 16:58 | 33.40157 | 126.71664 | 1179 ft | 1 kts | 341° |
| 2026-05-06 16:58 | 33.40160 | 126.71655 | 1177 ft | 1 kts | 296° |
| 2026-05-06 16:58 | 33.40159 | 126.71633 | 1177 ft | 7 kts | 270° |
| 2026-05-06 16:58 | 33.40140 | 126.71582 | 1171 ft | 8 kts | 213° |
| 2026-05-06 16:59 | 33.40107 | 126.71524 | 1170 ft | 10 kts | 263° |
| 2026-05-06 16:59 | 33.40104 | 126.71418 | 1180 ft | 15 kts | 269° |
| 2026-05-06 16:59 | 33.40103 | 126.71320 | 1180 ft | 0 kts | 269° |
| 2026-05-06 17:00 | 33.40103 | 126.71312 | 1180 ft | 3 kts | 270° |
| 2026-05-06 17:00 | 33.40104 | 126.71256 | 1172 ft | 10 kts | 270° |
| 2026-05-06 17:00 | 33.40095 | 126.71173 | 1180 ft | 8 kts | 241° |
| 2026-05-06 17:00 | 33.40055 | 126.71151 | 1176 ft | 7 kts | 189° |
| 2026-05-06 17:01 | 33.39996 | 126.71147 | 1174 ft | 10 kts | 180° |
| 2026-05-06 17:01 | 33.39912 | 126.71147 | 1177 ft | 14 kts | 180° |
| 2026-05-06 17:01 | 33.39800 | 126.71148 | 1179 ft | 18 kts | 180° |
| 2026-05-06 17:01 | 33.39666 | 126.71148 | 1183 ft | 21 kts | 180° |
| 2026-05-06 17:02 | 33.39535 | 126.71148 | 1174 ft | 24 kts | 179° |
| 2026-05-06 17:02 | 33.39380 | 126.71150 | 1178 ft | 21 kts | 179° |
| 2026-05-06 17:02 | 33.39220 | 126.71152 | 1178 ft | 25 kts | 180° |
| 2026-05-06 17:02 | 33.39034 | 126.71153 | 1175 ft | 29 kts | 180° |
| 2026-05-06 17:03 | 33.38860 | 126.71154 | 1176 ft | 15 kts | 180° |
| 2026-05-06 17:03 | 33.38747 | 126.71154 | 1174 ft | 18 kts | 180° |
| 2026-05-06 17:03 | 33.38609 | 126.71155 | 1175 ft | 21 kts | 180° |
| 2026-05-06 17:03 | 33.38459 | 126.71156 | 1179 ft | 16 kts | 180° |
| 2026-05-06 17:04 | 33.38424 | 126.71157 | 1177 ft | 5 kts | 177° |
| 2026-05-06 17:04 | 33.38391 | 126.71173 | 1180 ft | 6 kts | 154° |
| 2026-05-06 17:04 | 33.38340 | 126.71195 | 1180 ft | 8 kts | 171° |
| 2026-05-06 17:04 | 33.38322 | 126.71187 | 1177 ft | 1 kts | 222° |
| 2026-05-06 17:05 | 33.38319 | 126.71180 | 1176 ft | 2 kts | 236° |
| 2026-05-06 17:05 | 33.38321 | 126.71170 | 1173 ft | 1 kts | 283° |
| 2026-05-06 17:05 | 33.38329 | 126.71165 | 1182 ft | 2 kts | 330° |
| 2026-05-06 17:05 | 33.38367 | 126.71157 | 1181 ft | 7 kts | 0° |
| 2026-05-06 17:06 | 33.38369 | 126.71157 | 1181 ft | 0 kts | 360° |
| 2026-05-06 17:06 | 33.38373 | 126.71157 | 1178 ft | 2 kts | 360° |
| 2026-05-06 17:06 | 33.38579 | 126.71158 | 1175 ft | 82 kts | 359° |
| 2026-05-06 17:06 | 33.39493 | 126.71156 | 1274 ft | 176 kts | 0° |
| 2026-05-06 17:07 | 33.40791 | 126.71217 | 2334 ft | 197 kts | 3° |
| 2026-05-06 17:07 | 33.42351 | 126.71313 | 3182 ft | 246 kts | 1° |
| 2026-05-06 17:07 | 33.44120 | 126.71589 | 4373 ft | 256 kts | 23° |
| 2026-05-06 17:07 | 33.45514 | 126.72960 | 4646 ft | 277 kts | 57° |
| 2026-05-06 17:08 | 33.46048 | 126.75140 | 4357 ft | 272 kts | 93° |
| 2026-05-06 17:08 | 33.45504 | 126.77252 | 4147 ft | 266 kts | 125° |
| 2026-05-06 17:08 | 33.44181 | 126.78734 | 3944 ft | 255 kts | 151° |
| 2026-05-06 17:08 | 33.42585 | 126.79263 | 3952 ft | 231 kts | 178° |
| 2026-05-06 17:09 | 33.41052 | 126.79367 | 3978 ft | 212 kts | 178° |
| 2026-05-06 17:09 | 33.39632 | 126.79444 | 4002 ft | 195 kts | 179° |
| 2026-05-06 17:09 | 33.38345 | 126.79478 | 3984 ft | 178 kts | 180° |
| 2026-05-06 17:09 | 33.37158 | 126.79462 | 3934 ft | 164 kts | 182° |
| 2026-05-06 17:10 | 33.36050 | 126.79411 | 3905 ft | 157 kts | 182° |
| 2026-05-06 17:10 | 33.34955 | 126.79400 | 3885 ft | 158 kts | 181° |
| 2026-05-06 17:10 | 33.33847 | 126.79390 | 3663 ft | 157 kts | 181° |
| 2026-05-06 17:10 | 33.32763 | 126.79387 | 3454 ft | 154 kts | 181° |
| 2026-05-06 17:11 | 33.32058 | 126.79381 | 3292 ft | 150 kts | 181° |
| 2026-05-06 17:11 | 33.31049 | 126.78515 | 3056 ft | 142 kts | 246° |
| 2026-05-06 17:11 | 33.31021 | 126.77309 | 3062 ft | 150 kts | 277° |
| 2026-05-06 17:11 | 33.31326 | 126.76102 | 2921 ft | 151 kts | 284° |
| 2026-05-06 17:12 | 33.31680 | 126.74933 | 2635 ft | 149 kts | 285° |
| 2026-05-06 17:12 | 33.32066 | 126.73801 | 2382 ft | 144 kts | 289° |
| 2026-05-06 17:12 | 33.32463 | 126.72755 | 2349 ft | 134 kts | 293° |
| 2026-05-06 17:12 | 33.33136 | 126.71954 | 2331 ft | 145 kts | 324° |
| 2026-05-06 17:13 | 33.33738 | 126.71601 | 2252 ft | 143 kts | 339° |
| 2026-05-06 17:13 | 33.34687 | 126.71262 | 2072 ft | 141 kts | 351° |
| 2026-05-06 17:13 | 33.35964 | 126.71197 | 1686 ft | 137 kts | 358° |
| 2026-05-06 17:13 | 33.36901 | 126.71176 | 1430 ft | 132 kts | 359° |
| 2026-05-06 17:14 | 33.37798 | 126.71173 | 1304 ft | 130 kts | 358° |
| 2026-05-06 17:14 | 33.38692 | 126.71155 | 1184 ft | 129 kts | 358° |
| 2026-05-06 17:14 | 33.39638 | 126.71148 | 1360 ft | 155 kts | 359° |
| 2026-05-06 17:14 | 33.40870 | 126.71145 | 1999 ft | 197 kts | 360° |
| 2026-05-06 17:15 | 33.42261 | 126.71152 | 3233 ft | 200 kts | 360° |
| 2026-05-06 17:15 | 33.43754 | 126.71285 | 3946 ft | 235 kts | 12° |
| 2026-05-06 17:15 | 33.45273 | 126.72260 | 4254 ft | 258 kts | 45° |
| 2026-05-06 17:15 | 33.46163 | 126.74116 | 4539 ft | 264 kts | 75° |
| 2026-05-06 17:16 | 33.46281 | 126.75561 | 4292 ft | 261 kts | 97° |
| 2026-05-06 17:16 | 33.45742 | 126.77567 | 4023 ft | 249 kts | 124° |
| 2026-05-06 17:16 | 33.44416 | 126.78776 | 3832 ft | 241 kts | 165° |
| 2026-05-06 17:16 | 33.42757 | 126.79011 | 3919 ft | 241 kts | 178° |
| 2026-05-06 17:17 | 33.41128 | 126.79479 | 3984 ft | 245 kts | 154° |
| 2026-05-06 17:17 | 33.39284 | 126.81048 | 4049 ft | 247 kts | 152° |
| 2026-05-06 17:17 | 33.38236 | 126.81638 | 4097 ft | 246 kts | 157° |
| 2026-05-06 17:17 | 33.36664 | 126.82448 | 4205 ft | 246 kts | 158° |
| 2026-05-06 17:18 | 33.35081 | 126.83223 | 4276 ft | 246 kts | 159° |
| 2026-05-06 17:18 | 33.33479 | 126.83969 | 4230 ft | 247 kts | 160° |
| 2026-05-06 17:18 | 33.31841 | 126.84343 | 4065 ft | 244 kts | 182° |
| 2026-05-06 17:18 | 33.30170 | 126.84048 | 3953 ft | 243 kts | 191° |
| 2026-05-06 17:19 | 33.28518 | 126.83659 | 3851 ft | 238 kts | 191° |
| 2026-05-06 17:19 | 33.26995 | 126.83095 | 3722 ft | 224 kts | 209° |
| 2026-05-06 17:19 | 33.25921 | 126.81822 | 3631 ft | 217 kts | 237° |
| 2026-05-06 17:19 | 33.25585 | 126.80085 | 3610 ft | 221 kts | 272° |
| 2026-05-06 17:20 | 33.25852 | 126.78337 | 3758 ft | 203 kts | 278° |
| 2026-05-06 17:20 | 33.26142 | 126.76774 | 3864 ft | 182 kts | 282° |
| 2026-05-06 17:20 | 33.26502 | 126.75363 | 3958 ft | 176 kts | 284° |
| 2026-05-06 17:20 | 33.26885 | 126.73976 | 3964 ft | 179 kts | 285° |
| 2026-05-06 17:21 | 33.27290 | 126.72591 | 3686 ft | 175 kts | 287° |
| 2026-05-06 17:21 | 33.27713 | 126.71252 | 3432 ft | 174 kts | 287° |
| 2026-05-06 17:21 | 33.28646 | 126.70421 | 3045 ft | 177 kts | 354° |
| 2026-05-06 17:21 | 33.29807 | 126.70896 | 2773 ft | 178 kts | 37° |
| 2026-05-06 17:22 | 33.30912 | 126.71320 | 2637 ft | 163 kts | 357° |
| 2026-05-06 17:22 | 33.32037 | 126.71264 | 2369 ft | 158 kts | 356° |
| 2026-05-06 17:22 | 33.33060 | 126.71244 | 2162 ft | 152 kts | 1° |
| 2026-05-06 17:22 | 33.34087 | 126.71224 | 1956 ft | 143 kts | 358° |
| 2026-05-06 17:23 | 33.35059 | 126.71218 | 1785 ft | 137 kts | 359° |
| 2026-05-06 17:23 | 33.36003 | 126.71202 | 1670 ft | 135 kts | 355° |
| 2026-05-06 17:23 | 33.36947 | 126.71168 | 1469 ft | 135 kts | 360° |
| 2026-05-06 17:23 | 33.37883 | 126.71168 | 1299 ft | 135 kts | 359° |
| 2026-05-06 17:24 | 33.38818 | 126.71154 | 1181 ft | 132 kts | 359° |
| 2026-05-06 17:24 | 33.39538 | 126.71150 | 1177 ft | 64 kts | 360° |
| 2026-05-06 17:24 | 33.39753 | 126.71150 | 1180 ft | 20 kts | 360° |
| 2026-05-06 17:24 | 33.39902 | 126.71149 | 1172 ft | 23 kts | 360° |
| 2026-05-06 17:25 | 33.40065 | 126.71148 | 1173 ft | 24 kts | 1° |
| 2026-05-06 17:25 | 33.40091 | 126.71156 | 1176 ft | 4 kts | 30° |
| 2026-05-06 17:25 | 33.40106 | 126.71198 | 1171 ft | 10 kts | 88° |
| 2026-05-06 17:25 | 33.40105 | 126.71321 | 1177 ft | 18 kts | 90° |
| 2026-05-06 17:26 | 33.40104 | 126.71485 | 1181 ft | 21 kts | 90° |
| 2026-05-06 17:26 | 33.40102 | 126.71566 | 1174 ft | 0 kts | 91° |
| 2026-05-06 17:26 | 33.40103 | 126.71605 | 1181 ft | 9 kts | 90° |
| 2026-05-06 17:26 | 33.40130 | 126.71653 | 1177 ft | 7 kts | 32° |
| 2026-05-06 17:27 | 33.40150 | 126.71668 | 1180 ft | 1 kts | 28° |